« Back
NWS Peachtree City, Ga » Text Product » MCN Terminal Aerodrome Forecast


Printer-friendly Version
Current Version              Previous Versions:   1  2  3  4  5  6  7  8  9  

Terminal Aerodrome Forecast

988
FTUS42 KFFC 230523
TAFMCN
TAF
KMCN 230523Z 2306/2406 08006KT 6SM -RA BKN018 OVC060
     FM230800 09008KT 4SM -RA BR OVC008
     FM231200 12010G17KT 2SM SHRA BR OVC006 PROB30 2315/2320 2SM
      TSRA OVC015CB
     FM232000 16010G19KT 5SM BR VCSH OVC009
     FM240200 19008KT 4SM BR OVC007=

USA.gov is the U.S. government's official web portal to all federal, state and local government web resources and services.